Terminal Aerodrome Forecast
Issued by NWS

Home | Current Version | Previous Version | Graphics & Text | Print | Product List | Glossary On
Versions: 1 2 3 4 5 6 7 8 9 10 11 12 13 14 15 16 17 18 19 20 21 22 23 24 25 26 27 28 29 30 31 32 33 34
000
FTUS43 KGRB 272332
TAFRHI
TAF
KRHI 272332Z 2800/2824 06004KT P6SM -SHRA SCT025 BKN060
      TEMPO 2800/2803 3SM -SHRA BR BKN025
     FM280300 VRB03KT P6SM VCSH BKN025 OVC040
     FM280600 VRB02KT 4SM BR SCT004 OVC012
      TEMPO 2806/2810 1 1/2SM -SHRA BR BKN004
     FM281000 05003KT 3SM BR OVC004
     FM281400 06006KT P6SM BKN025
     FM281700 05006KT P6SM SCT045 BKN120=

USA.gov is the U.S. government's official web portal to all federal, state and local government web resources and services.